sensor_id;sensor_type;location;lat;lon;timestamp;pressure;altitude;pressure_sealevel;temperature;humidity
9521;BME280;4798;41.574;23.734;2024-01-07T00:01:14;94043.66;;;10.05;100.00
9521;BME280;4798;41.574;23.734;2024-01-07T00:03:44;94033.09;;;10.05;100.00
9521;BME280;4798;41.574;23.734;2024-01-07T00:06:13;94023.31;;;10.19;100.00
9521;BME280;4798;41.574;23.734;2024-01-07T00:08:41;94002.50;;;10.26;100.00
9521;BME280;4798;41.574;23.734;2024-01-07T00:11:10;94018.00;;;10.19;100.00
9521;BME280;4798;41.574;23.734;2024-01-07T00:13:38;93981.91;;;10.23;100.00
9521;BME280;4798;41.574;23.734;2024-01-07T00:16:07;94000.53;;;10.32;100.00
9521;BME280;4798;41.574;23.734;2024-01-07T00:18:36;93982.81;;;10.18;100.00
9521;BME280;4798;41.574;23.734;2024-01-07T00:21:06;93978.78;;;10.21;100.00
9521;BME280;4798;41.574;23.734;2024-01-07T00:23:34;93973.19;;;10.09;100.00
9521;BME280;4798;41.574;23.734;2024-01-07T00:26:03;93960.41;;;10.25;100.00
9521;BME280;4798;41.574;23.734;2024-01-07T00:28:32;93953.34;;;10.34;100.00
9521;BME280;4798;41.574;23.734;2024-01-07T00:31:00;93928.75;;;10.19;100.00
9521;BME280;4798;41.574;23.734;2024-01-07T00:33:30;93944.63;;;10.19;100.00
9521;BME280;4798;41.574;23.734;2024-01-07T00:36:00;93926.31;;;10.23;100.00
9521;BME280;4798;41.574;23.734;2024-01-07T00:38:30;93917.00;;;10.12;100.00
9521;BME280;4798;41.574;23.734;2024-01-07T00:40:58;93902.78;;;10.22;100.00
9521;BME280;4798;41.574;23.734;2024-01-07T00:43:27;93884.28;;;10.30;100.00
9521;BME280;4798;41.574;23.734;2024-01-07T00:45:55;93904.44;;;10.17;100.00
9521;BME280;4798;41.574;23.734;2024-01-07T00:48:24;93877.38;;;10.20;100.00
9521;BME280;4798;41.574;23.734;2024-01-07T00:50:53;93882.25;;;10.27;100.00
9521;BME280;4798;41.574;23.734;2024-01-07T00:53:22;93872.44;;;10.28;100.00
9521;BME280;4798;41.574;23.734;2024-01-07T00:55:52;93852.34;;;10.27;100.00
9521;BME280;4798;41.574;23.734;2024-01-07T00:58:20;93847.59;;;10.15;100.00
9521;BME280;4798;41.574;23.734;2024-01-07T01:00:49;93841.44;;;10.28;100.00
9521;BME280;4798;41.574;23.734;2024-01-07T01:03:18;93830.44;;;10.35;100.00
9521;BME280;4798;41.574;23.734;2024-01-07T01:05:46;93823.19;;;10.49;100.00
9521;BME280;4798;41.574;23.734;2024-01-07T01:08:15;93807.94;;;10.54;100.00
9521;BME280;4798;41.574;23.734;2024-01-07T01:10:44;93800.56;;;10.43;100.00
9521;BME280;4798;41.574;23.734;2024-01-07T01:13:14;93806.47;;;10.40;100.00
9521;BME280;4798;41.574;23.734;2024-01-07T01:15:42;93780.59;;;10.37;100.00
9521;BME280;4798;41.574;23.734;2024-01-07T01:18:11;93800.56;;;10.43;100.00
9521;BME280;4798;41.574;23.734;2024-01-07T01:20:40;93776.59;;;10.48;100.00
9521;BME280;4798;41.574;23.734;2024-01-07T01:23:08;93774.44;;;10.50;100.00
9521;BME280;4798;41.574;23.734;2024-01-07T01:25:37;93756.50;;;10.55;100.00
9521;BME280;4798;41.574;23.734;2024-01-07T01:28:06;93762.75;;;10.51;100.00
9521;BME280;4798;41.574;23.734;2024-01-07T01:30:37;93757.47;;;10.59;100.00
9521;BME280;4798;41.574;23.734;2024-01-07T01:33:05;93759.81;;;10.61;100.00
9521;BME280;4798;41.574;23.734;2024-01-07T01:35:34;93697.69;;;10.19;100.00
9521;BME280;4798;41.574;23.734;2024-01-07T01:38:03;93757.25;;;10.39;100.00
9521;BME280;4798;41.574;23.734;2024-01-07T01:40:32;93765.50;;;10.37;100.00
9521;BME280;4798;41.574;23.734;2024-01-07T01:43:01;93735.63;;;10.14;100.00
9521;BME280;4798;41.574;23.734;2024-01-07T01:45:30;93772.94;;;10.35;100.00
9521;BME280;4798;41.574;23.734;2024-01-07T01:48:00;93754.66;;;10.16;100.00
9521;BME280;4798;41.574;23.734;2024-01-07T01:50:29;93727.75;;;10.01;100.00
9521;BME280;4798;41.574;23.734;2024-01-07T01:52:58;93740.50;;;10.21;100.00
9521;BME280;4798;41.574;23.734;2024-01-07T01:55:27;93745.94;;;10.25;100.00
9521;BME280;4798;41.574;23.734;2024-01-07T01:57:55;93710.41;;;9.86;100.00
9521;BME280;4798;41.574;23.734;2024-01-07T02:00:27;93773.53;;;10.01;100.00
9521;BME280;4798;41.574;23.734;2024-01-07T02:02:55;93778.88;;;9.88;100.00
9521;BME280;4798;41.574;23.734;2024-01-07T02:05:26;93774.88;;;9.90;100.00
9521;BME280;4798;41.574;23.734;2024-01-07T02:07:55;93795.53;;;10.10;100.00
9521;BME280;4798;41.574;23.734;2024-01-07T02:10:41;93800.72;;;10.15;100.00
9521;BME280;4798;41.574;23.734;2024-01-07T02:13:10;93805.41;;;9.96;100.00
9521;BME280;4798;41.574;23.734;2024-01-07T02:15:39;93793.69;;;9.89;100.00
9521;BME280;4798;41.574;23.734;2024-01-07T02:18:07;93802.13;;;9.69;100.00
9521;BME280;4798;41.574;23.734;2024-01-07T02:20:39;93790.97;;;9.58;100.00
9521;BME280;4798;41.574;23.734;2024-01-07T02:23:07;93784.06;;;9.71;100.00
9521;BME280;4798;41.574;23.734;2024-01-07T02:25:37;93801.19;;;9.51;100.00
9521;BME280;4798;41.574;23.734;2024-01-07T02:28:06;93798.00;;;9.63;100.00
9521;BME280;4798;41.574;23.734;2024-01-07T02:30:35;93784.94;;;9.44;100.00
9521;BME280;4798;41.574;23.734;2024-01-07T02:33:04;93796.81;;;9.69;100.00
9521;BME280;4798;41.574;23.734;2024-01-07T02:35:33;93799.28;;;9.87;100.00
9521;BME280;4798;41.574;23.734;2024-01-07T02:38:01;93792.72;;;9.85;100.00
9521;BME280;4798;41.574;23.734;2024-01-07T02:40:30;93792.28;;;9.47;100.00
9521;BME280;4798;41.574;23.734;2024-01-07T02:43:00;93793.53;;;9.14;100.00
9521;BME280;4798;41.574;23.734;2024-01-07T02:45:28;93781.31;;;8.90;100.00
9521;BME280;4798;41.574;23.734;2024-01-07T02:47:57;93787.31;;;8.69;100.00
9521;BME280;4798;41.574;23.734;2024-01-07T02:50:26;93786.16;;;8.75;100.00
9521;BME280;4798;41.574;23.734;2024-01-07T02:52:54;93764.03;;;8.84;100.00
9521;BME280;4798;41.574;23.734;2024-01-07T02:55:23;93760.44;;;8.53;100.00
9521;BME280;4798;41.574;23.734;2024-01-07T02:57:52;93778.53;;;8.60;100.00
9521;BME280;4798;41.574;23.734;2024-01-07T03:00:22;93769.69;;;8.91;100.00
9521;BME280;4798;41.574;23.734;2024-01-07T03:02:50;93761.44;;;9.20;100.00
9521;BME280;4798;41.574;23.734;2024-01-07T03:05:20;93758.84;;;9.29;100.00
9521;BME280;4798;41.574;23.734;2024-01-07T03:07:48;93781.47;;;9.21;100.00
9521;BME280;4798;41.574;23.734;2024-01-07T03:10:17;93797.47;;;9.03;100.00
9521;BME280;4798;41.574;23.734;2024-01-07T03:12:46;93798.91;;;9.22;100.00
9521;BME280;4798;41.574;23.734;2024-01-07T03:15:14;93786.41;;;9.01;100.00
9521;BME280;4798;41.574;23.734;2024-01-07T03:17:44;93780.56;;;8.90;100.00
9521;BME280;4798;41.574;23.734;2024-01-07T03:20:13;93775.56;;;8.88;100.00
9521;BME280;4798;41.574;23.734;2024-01-07T03:22:42;93779.09;;;8.98;100.00
9521;BME280;4798;41.574;23.734;2024-01-07T03:25:10;93770.16;;;9.21;100.00
9521;BME280;4798;41.574;23.734;2024-01-07T03:27:39;93776.16;;;9.35;100.00
9521;BME280;4798;41.574;23.734;2024-01-07T03:30:08;93773.59;;;9.43;100.00
9521;BME280;4798;41.574;23.734;2024-01-07T03:32:37;93759.72;;;9.38;100.00
9521;BME280;4798;41.574;23.734;2024-01-07T03:35:08;93765.44;;;9.53;100.00
9521;BME280;4798;41.574;23.734;2024-01-07T03:37:37;93728.44;;;9.18;100.00
9521;BME280;4798;41.574;23.734;2024-01-07T03:40:10;93774.09;;;9.32;100.00
9521;BME280;4798;41.574;23.734;2024-01-07T03:42:39;93760.25;;;9.48;100.00
9521;BME280;4798;41.574;23.734;2024-01-07T03:45:08;93757.63;;;9.48;100.00
9521;BME280;4798;41.574;23.734;2024-01-07T03:47:37;93747.31;;;9.47;100.00
9521;BME280;4798;41.574;23.734;2024-01-07T03:50:07;93749.53;;;8.95;100.00
9521;BME280;4798;41.574;23.734;2024-01-07T03:52:36;93736.94;;;8.92;100.00
9521;BME280;4798;41.574;23.734;2024-01-07T03:55:06;93717.16;;;8.90;100.00
9521;BME280;4798;41.574;23.734;2024-01-07T03:57:35;93722.25;;;8.86;100.00
9521;BME280;4798;41.574;23.734;2024-01-07T04:00:04;93733.88;;;8.85;100.00
9521;BME280;4798;41.574;23.734;2024-01-07T04:02:33;93748.78;;;8.81;100.00
9521;BME280;4798;41.574;23.734;2024-01-07T04:05:02;93744.28;;;8.82;100.00
9521;BME280;4798;41.574;23.734;2024-01-07T04:07:32;93754.25;;;8.71;100.00
9521;BME280;4798;41.574;23.734;2024-01-07T04:10:00;93753.09;;;8.77;100.00
9521;BME280;4798;41.574;23.734;2024-01-07T04:12:29;93765.88;;;8.70;100.00
9521;BME280;4798;41.574;23.734;2024-01-07T04:14:58;93773.22;;;8.73;100.00
9521;BME280;4798;41.574;23.734;2024-01-07T04:17:26;93753.97;;;8.73;100.00
9521;BME280;4798;41.574;23.734;2024-01-07T04:19:55;93771.16;;;8.70;100.00
9521;BME280;4798;41.574;23.734;2024-01-07T04:22:24;93760.13;;;8.82;100.00
9521;BME280;4798;41.574;23.734;2024-01-07T04:24:54;93763.03;;;8.94;100.00
9521;BME280;4798;41.574;23.734;2024-01-07T04:27:23;93772.44;;;9.00;100.00
9521;BME280;4798;41.574;23.734;2024-01-07T04:29:52;93768.00;;;9.09;100.00
9521;BME280;4798;41.574;23.734;2024-01-07T04:32:20;93770.19;;;8.93;100.00
9521;BME280;4798;41.574;23.734;2024-01-07T04:34:49;93785.31;;;9.15;100.00
9521;BME280;4798;41.574;23.734;2024-01-07T04:37:18;93786.53;;;9.31;100.00
9521;BME280;4798;41.574;23.734;2024-01-07T04:39:46;93771.41;;;9.23;100.00
9521;BME280;4798;41.574;23.734;2024-01-07T04:42:17;93764.41;;;9.05;100.00
9521;BME280;4798;41.574;23.734;2024-01-07T04:44:46;93754.69;;;9.01;100.00
9521;BME280;4798;41.574;23.734;2024-01-07T04:47:25;93752.94;;;9.10;100.00
9521;BME280;4798;41.574;23.734;2024-01-07T04:49:54;93745.34;;;9.30;100.00
9521;BME280;4798;41.574;23.734;2024-01-07T04:52:23;93721.34;;;9.05;100.00
9521;BME280;4798;41.574;23.734;2024-01-07T04:54:53;93762.84;;;8.90;100.00
9521;BME280;4798;41.574;23.734;2024-01-07T04:57:23;93765.69;;;8.94;100.00
9521;BME280;4798;41.574;23.734;2024-01-07T04:59:53;93776.81;;;9.05;100.00
9521;BME280;4798;41.574;23.734;2024-01-07T05:02:21;93755.78;;;9.13;100.00
9521;BME280;4798;41.574;23.734;2024-01-07T05:04:50;93700.81;;;8.88;100.00
9521;BME280;4798;41.574;23.734;2024-01-07T05:07:19;93714.34;;;9.09;100.00
9521;BME280;4798;41.574;23.734;2024-01-07T05:09:47;93730.06;;;8.91;100.00
9521;BME280;4798;41.574;23.734;2024-01-07T05:12:16;93746.66;;;8.29;100.00
9521;BME280;4798;41.574;23.734;2024-01-07T05:14:46;93759.53;;;8.17;100.00
9521;BME280;4798;41.574;23.734;2024-01-07T05:17:14;93764.03;;;8.30;100.00
9521;BME280;4798;41.574;23.734;2024-01-07T05:19:43;93764.53;;;8.32;100.00
9521;BME280;4798;41.574;23.734;2024-01-07T05:22:12;93778.31;;;8.29;100.00
9521;BME280;4798;41.574;23.734;2024-01-07T05:24:41;93763.47;;;8.33;100.00
9521;BME280;4798;41.574;23.734;2024-01-07T05:27:09;93754.56;;;8.29;100.00
9521;BME280;4798;41.574;23.734;2024-01-07T05:29:38;93743.69;;;8.17;100.00
9521;BME280;4798;41.574;23.734;2024-01-07T05:32:09;93752.66;;;8.16;100.00
9521;BME280;4798;41.574;23.734;2024-01-07T05:34:37;93745.06;;;8.14;100.00
9521;BME280;4798;41.574;23.734;2024-01-07T05:37:06;93764.59;;;8.13;100.00
9521;BME280;4798;41.574;23.734;2024-01-07T05:39:35;93780.72;;;8.25;100.00
9521;BME280;4798;41.574;23.734;2024-01-07T05:42:03;93737.69;;;7.98;100.00
9521;BME280;4798;41.574;23.734;2024-01-07T05:44:32;93782.56;;;8.25;100.00
9521;BME280;4798;41.574;23.734;2024-01-07T05:47:01;93743.75;;;7.98;100.00
9521;BME280;4798;41.574;23.734;2024-01-07T05:49:31;93790.34;;;8.35;100.00
9521;BME280;4798;41.574;23.734;2024-01-07T05:52:00;93795.81;;;8.39;100.00
9521;BME280;4798;41.574;23.734;2024-01-07T05:54:29;93802.56;;;8.31;100.00
9521;BME280;4798;41.574;23.734;2024-01-07T05:56:58;93798.94;;;8.27;100.00
9521;BME280;4798;41.574;23.734;2024-01-07T05:59:27;93814.19;;;8.30;100.00
9521;BME280;4798;41.574;23.734;2024-01-07T06:01:58;93812.81;;;8.32;100.00
9521;BME280;4798;41.574;23.734;2024-01-07T06:04:27;93812.16;;;8.41;100.00
9521;BME280;4798;41.574;23.734;2024-01-07T06:06:57;93794.59;;;8.17;100.00
9521;BME280;4798;41.574;23.734;2024-01-07T06:09:27;93816.63;;;8.40;100.00
9521;BME280;4798;41.574;23.734;2024-01-07T06:11:55;93786.72;;;8.31;100.00
9521;BME280;4798;41.574;23.734;2024-01-07T06:14:24;93814.59;;;8.37;100.00
9521;BME280;4798;41.574;23.734;2024-01-07T06:16:53;93818.97;;;7.96;100.00
9521;BME280;4798;41.574;23.734;2024-01-07T06:19:21;93826.00;;;7.87;100.00
9521;BME280;4798;41.574;23.734;2024-01-07T06:21:50;93824.03;;;7.92;100.00
9521;BME280;4798;41.574;23.734;2024-01-07T06:24:20;93828.03;;;8.22;100.00
9521;BME280;4798;41.574;23.734;2024-01-07T06:26:49;93826.91;;;8.55;100.00
9521;BME280;4798;41.574;23.734;2024-01-07T06:29:17;93834.78;;;8.87;100.00
9521;BME280;4798;41.574;23.734;2024-01-07T06:31:46;93803.56;;;8.89;100.00
9521;BME280;4798;41.574;23.734;2024-01-07T06:34:16;93816.72;;;9.17;100.00
9521;BME280;4798;41.574;23.734;2024-01-07T06:36:44;93831.56;;;9.40;100.00
9521;BME280;4798;41.574;23.734;2024-01-07T06:39:13;93818.09;;;9.28;100.00
9521;BME280;4798;41.574;23.734;2024-01-07T06:41:43;93819.81;;;9.46;100.00
9521;BME280;4798;41.574;23.734;2024-01-07T06:44:12;93812.94;;;9.45;100.00
9521;BME280;4798;41.574;23.734;2024-01-07T06:46:40;93831.69;;;9.71;100.00
9521;BME280;4798;41.574;23.734;2024-01-07T06:49:09;93839.31;;;9.72;100.00
9521;BME280;4798;41.574;23.734;2024-01-07T06:51:38;93835.25;;;9.88;100.00
9521;BME280;4798;41.574;23.734;2024-01-07T06:54:07;93842.50;;;10.05;100.00
9521;BME280;4798;41.574;23.734;2024-01-07T06:56:40;93835.69;;;10.04;100.00
9521;BME280;4798;41.574;23.734;2024-01-07T06:59:11;93843.06;;;9.93;100.00
9521;BME280;4798;41.574;23.734;2024-01-07T07:01:40;93836.28;;;10.01;100.00
9521;BME280;4798;41.574;23.734;2024-01-07T07:04:08;93824.41;;;9.98;100.00
9521;BME280;4798;41.574;23.734;2024-01-07T07:06:37;93825.22;;;9.99;100.00
9521;BME280;4798;41.574;23.734;2024-01-07T07:09:06;93823.19;;;10.04;100.00
9521;BME280;4798;41.574;23.734;2024-01-07T07:11:34;93822.91;;;10.06;100.00
9521;BME280;4798;41.574;23.734;2024-01-07T07:14:03;93827.53;;;10.00;100.00
9521;BME280;4798;41.574;23.734;2024-01-07T07:16:34;93826.72;;;9.91;100.00
9521;BME280;4798;41.574;23.734;2024-01-07T07:19:03;93829.03;;;9.93;100.00
9521;BME280;4798;41.574;23.734;2024-01-07T07:21:32;93821.41;;;9.91;100.00
9521;BME280;4798;41.574;23.734;2024-01-07T07:24:00;93822.19;;;9.92;100.00
9521;BME280;4798;41.574;23.734;2024-01-07T07:26:29;93818.94;;;9.95;100.00
9521;BME280;4798;41.574;23.734;2024-01-07T07:28:58;93818.81;;;10.00;100.00
9521;BME280;4798;41.574;23.734;2024-01-07T07:31:27;93817.63;;;10.06;100.00
9521;BME280;4798;41.574;23.734;2024-01-07T07:33:58;93819.47;;;10.05;100.00
9521;BME280;4798;41.574;23.734;2024-01-07T07:36:26;93817.31;;;10.07;100.00
9521;BME280;4798;41.574;23.734;2024-01-07T07:38:55;93797.22;;;10.06;100.00
9521;BME280;4798;41.574;23.734;2024-01-07T07:41:23;93816.47;;;9.98;100.00
9521;BME280;4798;41.574;23.734;2024-01-07T07:43:52;93804.50;;;10.01;100.00
9521;BME280;4798;41.574;23.734;2024-01-07T07:46:21;93789.59;;;9.83;100.00
9521;BME280;4798;41.574;23.734;2024-01-07T07:48:50;93819.84;;;9.90;100.00
9521;BME280;4798;41.574;23.734;2024-01-07T07:51:20;93806.19;;;9.75;100.00
9521;BME280;4798;41.574;23.734;2024-01-07T07:53:49;93813.63;;;9.95;100.00
9521;BME280;4798;41.574;23.734;2024-01-07T07:56:18;93818.69;;;10.05;100.00
9521;BME280;4798;41.574;23.734;2024-01-07T07:58:47;93828.00;;;10.02;100.00
9521;BME280;4798;41.574;23.734;2024-01-07T08:01:17;93832.47;;;9.93;100.00
9521;BME280;4798;41.574;23.734;2024-01-07T08:03:46;93810.69;;;9.74;100.00
9521;BME280;4798;41.574;23.734;2024-01-07T08:06:14;93825.84;;;9.82;100.00
9521;BME280;4798;41.574;23.734;2024-01-07T08:08:44;93826.88;;;9.73;100.00
9521;BME280;4798;41.574;23.734;2024-01-07T08:11:13;93824.59;;;10.02;100.00
9521;BME280;4798;41.574;23.734;2024-01-07T08:13:42;93814.75;;;9.94;100.00
9521;BME280;4798;41.574;23.734;2024-01-07T08:16:11;93817.50;;;9.89;100.00
9521;BME280;4798;41.574;23.734;2024-01-07T08:18:40;93815.09;;;9.79;100.00
9521;BME280;4798;41.574;23.734;2024-01-07T08:21:08;93814.88;;;9.89;100.00
9521;BME280;4798;41.574;23.734;2024-01-07T08:23:37;93743.72;;;9.43;100.00
9521;BME280;4798;41.574;23.734;2024-01-07T08:26:07;93816.97;;;10.00;100.00
9521;BME280;4798;41.574;23.734;2024-01-07T08:28:36;93816.47;;;9.98;100.00
9521;BME280;4798;41.574;23.734;2024-01-07T08:31:04;93817.88;;;9.96;100.00
9521;BME280;4798;41.574;23.734;2024-01-07T08:33:34;93817.88;;;9.96;100.00
9521;BME280;4798;41.574;23.734;2024-01-07T08:36:03;93821.59;;;9.95;100.00
9521;BME280;4798;41.574;23.734;2024-01-07T08:38:32;93798.72;;;9.77;100.00
9521;BME280;4798;41.574;23.734;2024-01-07T08:41:01;93821.47;;;10.00;100.00
9521;BME280;4798;41.574;23.734;2024-01-07T08:43:31;93819.16;;;10.07;100.00
9521;BME280;4798;41.574;23.734;2024-01-07T08:45:59;93824.38;;;10.12;100.00
9521;BME280;4798;41.574;23.734;2024-01-07T08:48:29;93822.69;;;10.16;100.00
9521;BME280;4798;41.574;23.734;2024-01-07T08:50:57;93828.16;;;10.19;100.00
9521;BME280;4798;41.574;23.734;2024-01-07T08:53:26;93823.97;;;10.18;100.00
9521;BME280;4798;41.574;23.734;2024-01-07T08:55:54;93825.22;;;10.21;100.00
9521;BME280;4798;41.574;23.734;2024-01-07T08:58:23;93819.59;;;10.23;100.00
9521;BME280;4798;41.574;23.734;2024-01-07T09:00:53;93816.09;;;10.36;100.00
9521;BME280;4798;41.574;23.734;2024-01-07T09:03:22;93755.44;;;9.95;100.00
9521;BME280;4798;41.574;23.734;2024-01-07T09:05:51;93817.09;;;10.40;100.00
9521;BME280;4798;41.574;23.734;2024-01-07T09:08:19;93815.44;;;10.52;100.00
9521;BME280;4798;41.574;23.734;2024-01-07T09:10:48;93805.84;;;10.43;100.00
9521;BME280;4798;41.574;23.734;2024-01-07T09:13:17;93780.63;;;9.92;100.00
9521;BME280;4798;41.574;23.734;2024-01-07T09:15:46;93802.41;;;10.34;100.00
9521;BME280;4798;41.574;23.734;2024-01-07T09:18:16;93806.97;;;10.50;100.00
9521;BME280;4798;41.574;23.734;2024-01-07T09:20:45;93801.53;;;10.55;100.00
9521;BME280;4798;41.574;23.734;2024-01-07T09:23:14;93781.63;;;10.58;100.00
9521;BME280;4798;41.574;23.734;2024-01-07T09:25:43;93783.53;;;10.66;100.00
9521;BME280;4798;41.574;23.734;2024-01-07T09:28:29;93783.06;;;10.64;100.00
9521;BME280;4798;41.574;23.734;2024-01-07T09:30:58;93777.00;;;10.72;100.00
9521;BME280;4798;41.574;23.734;2024-01-07T09:33:28;93785.69;;;10.64;100.00
9521;BME280;4798;41.574;23.734;2024-01-07T09:35:57;93780.69;;;10.54;100.00
9521;BME280;4798;41.574;23.734;2024-01-07T09:38:41;93782.53;;;10.53;100.00
9521;BME280;4798;41.574;23.734;2024-01-07T09:41:09;93767.75;;;10.52;100.00
9521;BME280;4798;41.574;23.734;2024-01-07T09:43:38;93765.84;;;10.53;100.00
9521;BME280;4798;41.574;23.734;2024-01-07T09:46:07;93770.88;;;10.63;100.00
9521;BME280;4798;41.574;23.734;2024-01-07T09:48:37;93766.75;;;10.79;100.00
9521;BME280;4798;41.574;23.734;2024-01-07T09:51:06;93756.59;;;10.81;100.00
9521;BME280;4798;41.574;23.734;2024-01-07T09:53:39;93741.44;;;10.73;100.00
9521;BME280;4798;41.574;23.734;2024-01-07T09:56:12;93757.53;;;10.76;100.00
9521;BME280;4798;41.574;23.734;2024-01-07T09:58:42;93747.53;;;10.73;100.00
9521;BME280;4798;41.574;23.734;2024-01-07T10:01:12;93731.59;;;10.56;100.00
9521;BME280;4798;41.574;23.734;2024-01-07T10:03:43;93745.81;;;10.30;100.00
9521;BME280;4798;41.574;23.734;2024-01-07T10:06:11;93725.59;;;10.03;100.00
9521;BME280;4798;41.574;23.734;2024-01-07T10:08:41;93745.22;;;10.33;100.00
9521;BME280;4798;41.574;23.734;2024-01-07T10:11:09;93738.06;;;10.33;100.00
9521;BME280;4798;41.574;23.734;2024-01-07T10:13:38;93737.13;;;10.38;100.00
9521;BME280;4798;41.574;23.734;2024-01-07T10:16:07;93744.19;;;10.51;100.00
9521;BME280;4798;41.574;23.734;2024-01-07T10:18:36;93747.03;;;10.63;100.00
9521;BME280;4798;41.574;23.734;2024-01-07T10:21:07;93740.38;;;10.74;100.00
9521;BME280;4798;41.574;23.734;2024-01-07T10:23:36;93729.47;;;10.67;100.00
9521;BME280;4798;41.574;23.734;2024-01-07T10:26:05;93671.34;;;10.14;100.00
9521;BME280;4798;41.574;23.734;2024-01-07T10:28:49;93723.28;;;10.41;100.00
9521;BME280;4798;41.574;23.734;2024-01-07T10:31:18;93728.31;;;10.51;100.00
9521;BME280;4798;41.574;23.734;2024-01-07T10:33:47;93712.41;;;10.51;100.00
9521;BME280;4798;41.574;23.734;2024-01-07T10:36:18;93707.00;;;10.64;100.00
9521;BME280;4798;41.574;23.734;2024-01-07T10:38:49;93712.94;;;10.78;100.00
9521;BME280;4798;41.574;23.734;2024-01-07T10:41:18;93708.41;;;10.62;100.00
9521;BME280;4798;41.574;23.734;2024-01-07T10:43:47;93709.34;;;10.66;100.00
9521;BME280;4798;41.574;23.734;2024-01-07T10:46:16;93706.09;;;10.69;100.00
9521;BME280;4798;41.574;23.734;2024-01-07T10:48:51;93686.06;;;10.46;100.00
9521;BME280;4798;41.574;23.734;2024-01-07T10:51:24;93691.06;;;10.47;100.00
9521;BME280;4798;41.574;23.734;2024-01-07T10:53:56;93683.47;;;10.63;100.00
9521;BME280;4798;41.574;23.734;2024-01-07T10:56:29;93675.81;;;10.53;100.00
9521;BME280;4798;41.574;23.734;2024-01-07T10:59:01;93677.38;;;10.54;100.00
9521;BME280;4798;41.574;23.734;2024-01-07T11:01:31;93663.28;;;10.28;100.00
9521;BME280;4798;41.574;23.734;2024-01-07T11:04:04;93666.88;;;10.40;100.00
9521;BME280;4798;41.574;23.734;2024-01-07T11:06:41;93662.69;;;10.39;100.00
9521;BME280;4798;41.574;23.734;2024-01-07T11:09:18;93651.06;;;10.57;100.00
9521;BME280;4798;41.574;23.734;2024-01-07T11:11:49;93655.94;;;10.90;100.00
9521;BME280;4798;41.574;23.734;2024-01-07T11:14:37;93655.28;;;10.67;100.00
9521;BME280;4798;41.574;23.734;2024-01-07T11:17:07;93643.13;;;10.92;100.00
9521;BME280;4798;41.574;23.734;2024-01-07T11:19:35;93645.47;;;10.84;100.00
9521;BME280;4798;41.574;23.734;2024-01-07T11:22:25;93641.25;;;10.75;100.00
9521;BME280;4798;41.574;23.734;2024-01-07T11:24:56;93640.91;;;10.68;100.00
9521;BME280;4798;41.574;23.734;2024-01-07T11:27:27;93645.44;;;10.59;100.00
9521;BME280;4798;41.574;23.734;2024-01-07T11:29:56;93642.19;;;10.79;100.00
9521;BME280;4798;41.574;23.734;2024-01-07T11:32:28;93635.97;;;10.75;100.00
9521;BME280;4798;41.574;23.734;2024-01-07T11:34:58;93634.41;;;10.82;100.00
9521;BME280;4798;41.574;23.734;2024-01-07T11:37:28;93599.56;;;10.24;100.00
9521;BME280;4798;41.574;23.734;2024-01-07T11:39:57;93628.63;;;10.72;100.00
9521;BME280;4798;41.574;23.734;2024-01-07T11:42:26;93630.06;;;10.95;100.00
9521;BME280;4798;41.574;23.734;2024-01-07T11:44:55;93627.38;;;10.78;100.00
9521;BME280;4798;41.574;23.734;2024-01-07T11:47:25;93625.34;;;10.83;100.00
9521;BME280;4798;41.574;23.734;2024-01-07T11:49:55;93621.31;;;10.95;100.00
9521;BME280;4798;41.574;23.734;2024-01-07T11:52:23;93625.84;;;10.94;100.00
9521;BME280;4798;41.574;23.734;2024-01-07T11:54:54;93619.59;;;10.90;100.00
9521;BME280;4798;41.574;23.734;2024-01-07T11:57:23;93618.03;;;10.89;100.00
9521;BME280;4798;41.574;23.734;2024-01-07T11:59:52;93616.31;;;10.93;100.00
9521;BME280;4798;41.574;23.734;2024-01-07T12:02:20;93599.78;;;10.79;100.00
9521;BME280;4798;41.574;23.734;2024-01-07T12:04:51;93611.94;;;10.89;100.00
9521;BME280;4798;41.574;23.734;2024-01-07T12:07:20;93610.09;;;10.89;100.00
9521;BME280;4798;41.574;23.734;2024-01-07T12:09:57;93616.16;;;10.81;100.00
9521;BME280;4798;41.574;23.734;2024-01-07T12:12:26;93611.97;;;10.80;100.00
9521;BME280;4798;41.574;23.734;2024-01-07T12:14:57;93610.09;;;10.72;100.00
9521;BME280;4798;41.574;23.734;2024-01-07T12:17:26;93608.97;;;10.73;100.00
9521;BME280;4798;41.574;23.734;2024-01-07T12:19:56;93608.38;;;10.84;100.00
9521;BME280;4798;41.574;23.734;2024-01-07T12:22:27;93556.31;;;10.63;100.00
9521;BME280;4798;41.574;23.734;2024-01-07T12:25:04;93599.94;;;10.91;100.00
9521;BME280;4798;41.574;23.734;2024-01-07T12:27:33;93601.50;;;11.01;100.00
9521;BME280;4798;41.574;23.734;2024-01-07T12:30:05;93575.63;;;10.89;100.00
9521;BME280;4798;41.574;23.734;2024-01-07T12:32:34;93584.03;;;11.08;100.00
9521;BME280;4798;41.574;23.734;2024-01-07T12:35:04;93597.28;;;11.25;100.00
9521;BME280;4798;41.574;23.734;2024-01-07T12:37:37;93590.81;;;11.43;100.00
9521;BME280;4798;41.574;23.734;2024-01-07T12:40:08;93600.19;;;11.49;100.00
9521;BME280;4798;41.574;23.734;2024-01-07T12:42:38;93594.53;;;11.60;100.00
9521;BME280;4798;41.574;23.734;2024-01-07T12:45:13;93590.31;;;11.59;100.00
9521;BME280;4798;41.574;23.734;2024-01-07T12:47:42;93594.53;;;11.60;100.00
9521;BME280;4798;41.574;23.734;2024-01-07T12:50:11;93590.00;;;11.60;100.00
9521;BME280;4798;41.574;23.734;2024-01-07T12:52:41;93589.38;;;11.63;100.00
9521;BME280;4798;41.574;23.734;2024-01-07T12:55:11;93552.34;;;11.29;100.00
9521;BME280;4798;41.574;23.734;2024-01-07T12:57:40;93589.69;;;11.62;100.00
9521;BME280;4798;41.574;23.734;2024-01-07T13:00:09;93590.00;;;11.60;100.00
9521;BME280;4798;41.574;23.734;2024-01-07T13:02:38;93510.63;;;10.92;100.00
9521;BME280;4798;41.574;23.734;2024-01-07T13:05:07;93582.94;;;11.18;100.00
9521;BME280;4798;41.574;23.734;2024-01-07T13:07:37;93576.81;;;11.34;100.00
9521;BME280;4798;41.574;23.734;2024-01-07T13:10:07;93576.97;;;11.38;100.00
9521;BME280;4798;41.574;23.734;2024-01-07T13:12:38;93567.41;;;11.54;100.00
9521;BME280;4798;41.574;23.734;2024-01-07T13:15:16;93570.50;;;11.65;100.00
9521;BME280;4798;41.574;23.734;2024-01-07T13:17:45;93512.59;;;11.20;100.00